Rickenbacker AFB, Ohio
Current Conditions -  °F | °C
As of 3:55 PM on Friday 31 Oct 2014 (Local Time) from KLCK Reporting Station
Light Rain Light Rain  
Wind Chill: 42°   Ceiling: 2400
Heat Index: 44°   Visibility: 7mi
Dew Point: 40°   Wind: 5mph
Humidity: 87%   Direction: 280°W
Pressure: 29.85"   Gusts: NA
Location:  39.8164°N, 82.9345°W
Report Text: KLCK 311955Z AUTO 28004KT 7SM -RA SCT018 BKN024 OVC029 07/05 A2985 RMK AO2 T00670046
Loading
Personal Weather Stations






























Interactive Weather Map
Tropical Storm Tracking
New forecast layout! Learn more

10-Day Weather Forecast

Advertisements
Track Severe Weather on mobile